Time;durP1;ratioP1;P1;durP2;ratioP2;P2;SDS_P1;SDS_P2;PMS_P1;PMS_P2;Temp;Humidity;BMP_temperature;BMP_pressure;BME280_temperature;BME280_humidity;BME280_pressure;Samples;Min_cycle;Max_cycle;Signal;HPM_P1;HPM_P2
2022/08/23 00:01:42;;;;;;;3.55;1.80;;;22.30;54.90;;;;;;6238741;22;19946;-68
2022/08/23 00:04:11;;;;;;;3.80;1.70;;;22.30;55.20;;;;;;6240004;23;20005;-68
2022/08/23 00:06:37;;;;;;;3.22;1.73;;;22.20;55.30;;;;;;6240547;23;20000;-68
2022/08/23 00:09:05;;;;;;;4.10;2.00;;;22.20;55.30;;;;;;6240991;23;20088;-68
2022/08/23 00:11:35;;;;;;;3.67;1.90;;;22.20;55.60;;;;;;6239694;23;20063;-68
2022/08/23 00:14:12;;;;;;;3.92;2.45;;;22.10;55.60;;;;;;6238636;23;20004;-68
2022/08/23 00:16:39;;;;;;;3.53;2.03;;;22.10;55.70;;;;;;6239870;23;20010;-68
2022/08/23 00:19:06;;;;;;;4.65;2.00;;;22.10;55.70;;;;;;6241486;22;20359;-69
2022/08/23 00:21:35;;;;;;;2.95;1.67;;;22.10;55.70;;;;;;6241685;23;20015;-68
2022/08/23 00:24:02;;;;;;;3.33;2.00;;;22.10;55.70;;;;;;6240753;23;20007;-68
2022/08/23 00:26:48;;;;;;;3.13;1.60;;;22.10;55.70;;;;;;6240795;23;20015;-68
2022/08/23 00:29:14;;;;;;;3.67;1.98;;;22.20;55.60;;;;;;6240424;23;20007;-68
2022/08/23 00:31:39;;;;;;;7.25;2.70;;;22.10;55.60;;;;;;6240857;23;20000;-68
2022/08/23 00:34:05;;;;;;;3.67;1.75;;;22.10;55.60;;;;;;6241678;23;20035;-68
2022/08/23 00:36:31;;;;;;;5.10;2.35;;;22.10;55.60;;;;;;6242524;23;20109;-69
2022/08/23 00:38:56;;;;;;;3.63;1.90;;;22.10;55.60;;;;;;6242339;23;20430;-68
2022/08/23 00:41:22;;;;;;;2.72;1.70;;;22.10;55.70;;;;;;6242365;23;20322;-68
2022/08/23 00:49:27;;;;;;;3.05;1.88;;;22.10;55.70;;;;;;6242068;23;20066;-68
2022/08/23 00:52:19;;;;;;;2.53;1.60;;;22.10;55.70;;;;;;6242350;23;20434;-67
2022/08/23 00:54:45;;;;;;;2.40;1.60;;;22.10;55.60;;;;;;6241188;23;20010;-68
2022/08/23 00:57:18;;;;;;;4.93;3.08;;;22.00;55.60;;;;;;6241502;23;20004;-68
2022/08/23 00:59:44;;;;;;;4.97;2.30;;;22.10;55.60;;;;;;6242027;23;20000;-67
2022/08/23 01:02:10;;;;;;;6.30;3.20;;;22.10;55.60;;;;;;6241752;23;20004;-67
2022/08/23 01:04:43;;;;;;;5.70;2.83;;;22.10;55.60;;;;;;6240969;23;20011;-68
2022/08/23 01:07:27;;;;;;;3.83;2.15;;;22.10;55.60;;;;;;6242024;23;20001;-67
2022/08/23 01:09:56;;;;;;;2.92;1.85;;;22.10;55.50;;;;;;6241410;23;20007;-68
2022/08/23 01:12:29;;;;;;;3.80;1.90;;;22.10;55.50;;;;;;6241092;23;20004;-67
2022/08/23 01:15:01;;;;;;;2.65;1.80;;;22.10;55.50;;;;;;6240060;23;20000;-68
2022/08/23 01:17:41;;;;;;;3.30;1.60;;;22.10;55.50;;;;;;6241618;23;20739;-67
2022/08/23 01:20:12;;;;;;;4.45;1.50;;;22.10;55.50;;;;;;6241075;23;20004;-67
2022/08/23 01:23:03;;;;;;;4.30;1.92;;;22.10;55.30;;;;;;6241319;23;20004;-68
2022/08/23 01:25:31;;;;;;;2.22;1.80;;;22.10;55.50;;;;;;6240920;23;20023;-68
2022/08/23 01:27:58;;;;;;;2.97;1.60;;;22.10;55.50;;;;;;6239568;23;20425;-67
2022/08/23 01:30:27;;;;;;;2.97;1.40;;;22.10;55.40;;;;;;6241805;22;20024;-68
2022/08/23 01:32:55;;;;;;;2.78;1.45;;;22.10;55.30;;;;;;6241892;23;20480;-69
2022/08/23 01:35:29;;;;;;;3.00;1.85;;;22.10;55.40;;;;;;6241338;23;20747;-69
2022/08/23 01:37:56;;;;;;;2.38;1.60;;;22.10;55.50;;;;;;6241194;23;20000;-69
2022/08/23 01:40:21;;;;;;;2.85;1.48;;;22.10;55.40;;;;;;6240947;23;20004;-68
2022/08/23 01:42:48;;;;;;;2.20;1.60;;;22.10;55.40;;;;;;6241680;23;20004;-68
2022/08/23 01:45:14;;;;;;;2.65;1.58;;;22.00;55.50;;;;;;6240533;23;20050;-68
2022/08/23 01:47:40;;;;;;;2.40;1.60;;;22.10;55.50;;;;;;6241474;23;20002;-68
2022/08/23 01:50:08;;;;;;;3.25;1.40;;;22.00;55.30;;;;;;6241735;23;20004;-68
2022/08/23 01:52:35;;;;;;;3.10;1.50;;;22.10;55.40;;;;;;6241308;23;20449;-68
2022/08/23 01:55:02;;;;;;;3.22;1.70;;;22.10;55.30;;;;;;6241126;23;20004;-68
2022/08/23 01:57:29;;;;;;;2.33;1.58;;;22.00;55.40;;;;;;6240821;23;20020;-69
2022/08/23 01:59:56;;;;;;;4.80;2.00;;;22.00;55.40;;;;;;6241400;23;20043;-68
2022/08/23 02:02:21;;;;;;;2.90;1.90;;;22.00;55.70;;;;;;6241201;23;20035;-69
2022/08/23 02:04:47;;;;;;;4.05;2.08;;;21.90;55.70;;;;;;6240710;23;20004;-68
2022/08/23 02:07:13;;;;;;;3.95;1.90;;;21.90;55.90;;;;;;6241199;23;20023;-69
2022/08/23 02:09:39;;;;;;;3.70;1.80;;;21.90;55.90;;;;;;6243067;23;20000;-69
2022/08/23 02:12:05;;;;;;;2.58;1.92;;;21.90;55.80;;;;;;6240997;23;19997;-69
2022/08/23 02:14:30;;;;;;;4.43;2.03;;;21.90;55.90;;;;;;6241233;23;20055;-69
2022/08/23 02:16:57;;;;;;;3.60;1.67;;;21.90;56.70;;;;;;6241162;23;20437;-70
2022/08/23 02:19:24;;;;;;;3.85;2.08;;;21.80;56.10;;;;;;6241624;23;20004;-70
2022/08/23 02:21:50;;;;;;;3.05;1.80;;;21.80;56.40;;;;;;6242710;23;20004;-70
2022/08/23 02:24:19;;;;;;;3.35;1.63;;;21.70;56.40;;;;;;6241064;23;20079;-70
2022/08/23 02:26:48;;;;;;;2.47;1.77;;;21.80;56.40;;;;;;6239318;23;20456;-69
2022/08/23 02:29:17;;;;;;;2.42;1.80;;;21.70;56.60;;;;;;6241205;23;19996;-67
2022/08/23 02:31:43;;;;;;;4.35;2.15;;;21.70;56.50;;;;;;6241429;23;20004;-68
2022/08/23 02:34:10;;;;;;;2.67;1.70;;;21.70;56.60;;;;;;6241288;23;20121;-67
2022/08/23 02:36:36;;;;;;;5.28;3.10;;;21.70;56.50;;;;;;6241282;23;20054;-68
2022/08/23 02:39:04;;;;;;;4.38;2.95;;;21.70;56.80;;;;;;6239499;23;20036;-68
2022/08/23 02:41:30;;;;;;;4.00;2.33;;;21.70;56.70;;;;;;6240225;23;20496;-68
2022/08/23 02:43:56;;;;;;;3.70;2.03;;;21.70;56.70;;;;;;6240187;23;20599;-68
2022/08/23 02:46:22;;;;;;;3.20;1.90;;;21.70;56.70;;;;;;6240715;23;20004;-68
2022/08/23 02:48:48;;;;;;;3.00;2.10;;;21.60;56.70;;;;;;6240969;23;20393;-68
2022/08/23 02:51:15;;;;;;;2.30;1.80;;;21.60;56.90;;;;;;6240045;23;20008;-68
2022/08/23 02:53:41;;;;;;;2.92;1.98;;;21.60;56.90;;;;;;6240827;23;20003;-66
2022/08/23 02:56:07;;;;;;;2.85;1.95;;;21.60;56.90;;;;;;6240670;23;20000;-67
2022/08/23 02:58:33;;;;;;;3.72;1.85;;;21.60;56.90;;;;;;6241058;23;20340;-67
2022/08/23 03:01:00;;;;;;;2.65;1.73;;;21.60;57.00;;;;;;6241532;23;20028;-67
2022/08/23 03:03:26;;;;;;;2.42;1.60;;;21.60;57.00;;;;;;6241176;23;20078;-67
2022/08/23 03:05:52;;;;;;;3.47;1.70;;;21.60;57.00;;;;;;6241858;23;20032;-67
2022/08/23 03:08:18;;;;;;;3.45;2.13;;;21.60;57.00;;;;;;6241327;23;20009;-67
2022/08/23 03:10:47;;;;;;;2.80;1.80;;;21.60;57.00;;;;;;6240976;23;20348;-67
2022/08/23 03:13:13;;;;;;;3.45;2.00;;;21.50;57.00;;;;;;6240818;23;20062;-67
2022/08/23 03:15:39;;;;;;;2.60;1.80;;;21.50;57.10;;;;;;6241226;23;20011;-67
2022/08/23 03:18:05;;;;;;;2.78;1.90;;;21.50;57.10;;;;;;6240658;23;20027;-67
2022/08/23 03:20:31;;;;;;;3.45;2.00;;;21.50;57.20;;;;;;6239699;23;20000;-67
2022/08/23 03:22:57;;;;;;;2.90;1.77;;;21.50;57.30;;;;;;6240329;23;20433;-69
2022/08/23 03:25:23;;;;;;;3.03;1.90;;;21.40;57.30;;;;;;6238763;23;20003;-69
2022/08/23 03:27:48;;;;;;;4.60;1.95;;;21.40;57.30;;;;;;6240350;23;20055;-68
2022/08/23 03:30:14;;;;;;;3.63;2.13;;;21.30;57.50;;;;;;6239290;23;20652;-69
2022/08/23 03:32:39;;;;;;;2.97;2.03;;;21.30;57.70;;;;;;6240720;23;20449;-69
2022/08/23 03:35:06;;;;;;;5.38;2.47;;;21.30;57.90;;;;;;6240113;23;20311;-69
2022/08/23 03:37:32;;;;;;;4.15;2.50;;;21.20;58.00;;;;;;6240915;23;20013;-68
2022/08/23 03:39:57;;;;;;;2.95;1.92;;;21.20;58.00;;;;;;6240149;23;20333;-69
2022/08/23 03:42:24;;;;;;;2.67;1.88;;;21.20;58.00;;;;;;6240807;23;20000;-69
2022/08/23 03:44:49;;;;;;;3.63;1.95;;;21.20;58.00;;;;;;6238446;23;20607;-69
2022/08/23 03:47:15;;;;;;;3.22;1.80;;;21.10;58.10;;;;;;6241035;23;20027;-69
2022/08/23 03:49:40;;;;;;;3.58;1.90;;;21.10;58.40;;;;;;6243567;23;20024;-69
2022/08/23 03:52:06;;;;;;;3.08;2.03;;;21.10;58.60;;;;;;6244700;23;19996;-70
2022/08/23 03:54:32;;;;;;;3.35;1.90;;;21.00;58.70;;;;;;6243964;23;20015;-69
2022/08/23 03:57:03;;;;;;;3.33;2.10;;;21.00;58.90;;;;;;6240879;23;20000;-69
2022/08/23 03:59:32;;;;;;;4.35;2.13;;;20.90;59.10;;;;;;6238858;23;20085;-69
2022/08/23 04:01:58;;;;;;;3.25;2.20;;;20.80;59.20;;;;;;6240771;23;20011;-69
2022/08/23 04:04:24;;;;;;;2.80;2.22;;;20.80;59.30;;;;;;6239887;23;20032;-68
2022/08/23 04:06:49;;;;;;;4.07;2.40;;;20.70;59.50;;;;;;6240783;23;20003;-68
2022/08/23 04:09:15;;;;;;;3.80;1.88;;;20.70;59.70;;;;;;6240814;23;20081;-70
2022/08/23 04:11:42;;;;;;;2.50;2.00;;;20.70;59.70;;;;;;6240528;23;20001;-70
2022/08/23 04:14:08;;;;;;;3.17;2.10;;;20.70;59.60;;;;;;6238808;23;20084;-70
2022/08/23 04:16:36;;;;;;;5.65;2.50;;;20.70;59.50;;;;;;6240570;23;20008;-70
2022/08/23 04:19:07;;;;;;;3.88;2.60;;;20.70;59.50;;;;;;6240581;23;20008;-68
2022/08/23 04:21:35;;;;;;;4.55;2.50;;;20.80;59.50;;;;;;6240497;23;20004;-68
2022/08/23 04:24:01;;;;;;;4.05;2.90;;;20.80;59.30;;;;;;6239547;23;20004;-69
2022/08/23 04:26:26;;;;;;;4.28;2.90;;;20.80;59.20;;;;;;6240253;23;20344;-69
2022/08/23 04:28:52;;;;;;;3.83;2.63;;;20.90;59.30;;;;;;6240643;23;20766;-69
2022/08/23 04:31:19;;;;;;;4.38;2.90;;;20.90;59.20;;;;;;6239756;23;20001;-68
2022/08/23 04:33:44;;;;;;;4.15;2.50;;;20.90;59.30;;;;;;6241128;23;19996;-68
2022/08/23 04:36:10;;;;;;;3.28;2.60;;;20.90;59.30;;;;;;6242102;23;20001;-68
2022/08/23 04:38:35;;;;;;;3.80;2.85;;;20.90;59.40;;;;;;6242913;23;19996;-69
2022/08/23 04:43:46;;;;;;;3.08;2.63;;;20.90;59.40;;;;;;6240615;23;20150;-69
2022/08/23 04:46:15;;;;;;;3.65;2.72;;;20.90;59.40;;;;;;6240749;23;20039;-70
2022/08/23 04:48:42;;;;;;;3.30;2.60;;;20.90;59.40;;;;;;6241125;23;20023;-69
2022/08/23 04:51:07;;;;;;;4.55;3.00;;;20.90;59.30;;;;;;6240283;23;20011;-69
2022/08/23 04:53:34;;;;;;;5.28;3.50;;;21.00;59.50;;;;;;6240560;23;20020;-69
2022/08/23 04:56:01;;;;;;;3.33;2.78;;;21.00;59.70;;;;;;6240532;23;20546;-69
2022/08/23 04:58:30;;;;;;;4.10;3.05;;;20.90;59.70;;;;;;6241005;23;20004;-68
2022/08/23 05:00:57;;;;;;;4.57;2.58;;;21.00;59.70;;;;;;6240181;23;20004;-69
2022/08/23 05:03:23;;;;;;;4.20;3.10;;;21.00;59.70;;;;;;6240300;23;20357;-69
2022/08/23 05:05:49;;;;;;;4.10;2.90;;;21.00;60.30;;;;;;6242461;23;20000;-69
2022/08/23 05:08:14;;;;;;;5.13;3.40;;;21.00;59.70;;;;;;6242472;23;20060;-69
2022/08/23 05:10:40;;;;;;;5.25;3.17;;;21.00;59.70;;;;;;6242617;23;20383;-69
2022/08/23 05:13:05;;;;;;;6.03;3.50;;;21.00;59.70;;;;;;6241445;23;19997;-69
2022/08/23 05:15:31;;;;;;;5.22;3.38;;;21.00;59.80;;;;;;6241526;23;20055;-69
2022/08/23 05:17:56;;;;;;;4.57;2.78;;;21.00;59.70;;;;;;6241955;23;20046;-69
2022/08/23 05:20:22;;;;;;;5.20;3.20;;;21.10;59.80;;;;;;6240482;23;20016;-68
2022/08/23 05:22:48;;;;;;;5.10;3.00;;;21.10;59.70;;;;;;6241748;23;20007;-68
2022/08/23 05:25:14;;;;;;;3.53;2.72;;;21.20;59.80;;;;;;6241670;23;20105;-68
2022/08/23 05:27:39;;;;;;;4.38;2.60;;;21.30;59.70;;;;;;6242021;23;20536;-68
2022/08/23 05:30:06;;;;;;;3.60;2.80;;;21.40;59.50;;;;;;6241770;23;19996;-69
2022/08/23 05:32:32;;;;;;;4.47;2.90;;;21.50;59.40;;;;;;6241930;23;19997;-69
2022/08/23 05:34:57;;;;;;;4.07;2.67;;;21.60;59.30;;;;;;6239949;23;20004;-69
2022/08/23 05:37:23;;;;;;;4.82;2.88;;;21.80;59.20;;;;;;6242178;23;20081;-68
2022/08/23 05:39:48;;;;;;;5.60;2.85;;;22.70;58.10;;;;;;6242152;23;20091;-68
2022/08/23 05:42:15;;;;;;;5.25;3.15;;;23.50;56.60;;;;;;6242148;23;20004;-69
2022/08/23 05:44:42;;;;;;;4.50;3.30;;;24.30;54.90;;;;;;6240570;23;20000;-69
2022/08/23 05:47:10;;;;;;;4.45;3.08;;;25.00;53.30;;;;;;6241943;22;19996;-69
2022/08/23 05:49:36;;;;;;;3.47;3.17;;;24.80;52.90;;;;;;6246181;23;20433;-70
2022/08/23 05:52:03;;;;;;;5.65;3.30;;;24.50;53.40;;;;;;6242335;23;20097;-70
2022/08/23 05:54:29;;;;;;;5.13;3.08;;;24.20;54.10;;;;;;6240053;23;20444;-68
2022/08/23 05:56:55;;;;;;;4.68;2.83;;;23.90;54.60;;;;;;6240739;23;20004;-70
2022/08/23 05:59:21;;;;;;;3.15;2.58;;;23.80;55.10;;;;;;6241312;23;20007;-69
2022/08/23 06:01:47;;;;;;;3.92;2.85;;;23.80;55.30;;;;;;6241498;22;20011;-70
2022/08/23 06:04:13;;;;;;;4.72;3.05;;;23.70;55.40;;;;;;6240647;23;20009;-70
2022/08/23 06:06:40;;;;;;;4.30;2.97;;;23.80;55.40;;;;;;6240552;23;20067;-69
2022/08/23 06:09:10;;;;;;;5.07;3.83;;;24.00;55.40;;;;;;6241252;23;20000;-70
2022/08/23 06:11:36;;;;;;;4.68;3.05;;;24.90;54.10;;;;;;6241608;23;20483;-69
2022/08/23 06:14:04;;;;;;;6.35;4.20;;;26.20;52.30;;;;;;6237966;23;20004;-70
2022/08/23 06:16:33;;;;;;;5.53;3.40;;;26.90;49.90;;;;;;6241262;23;20388;-69
2022/08/23 06:19:01;;;;;;;5.57;3.50;;;27.50;49.00;;;;;;6241026;22;20000;-69
2022/08/23 06:21:27;;;;;;;4.18;3.15;;;28.20;47.80;;;;;;6241484;23;20075;-69
2022/08/23 06:23:53;;;;;;;4.15;2.92;;;28.90;46.90;;;;;;6240189;22;20000;-69
2022/08/23 06:26:25;;;;;;;7.53;3.13;;;29.70;45.90;;;;;;6242789;23;20008;-70
2022/08/23 06:28:54;;;;;;;4.55;3.10;;;30.50;44.50;;;;;;6240917;23;20004;-70
2022/08/23 06:34:32;;;;;;;4.97;2.78;;;30.50;43.40;;;;;;6221350;23;20096;-69
2022/08/23 06:37:09;;;;;;;4.00;2.80;;;30.40;44.10;;;;;;6242120;23;20014;-70
2022/08/23 06:39:35;;;;;;;5.10;2.83;;;31.00;43.00;;;;;;6241071;23;20336;-70
2022/08/23 06:42:05;;;;;;;5.32;2.50;;;31.20;42.60;;;;;;6241534;23;20000;-70
2022/08/23 06:44:32;;;;;;;6.05;3.28;;;31.60;42.00;;;;;;6238245;23;20390;-70
2022/08/23 06:46:58;;;;;;;4.38;3.00;;;32.10;41.10;;;;;;6239679;23;20008;-69
2022/08/23 06:49:26;;;;;;;3.92;2.50;;;32.70;41.10;;;;;;6240933;23;20404;-70
2022/08/23 06:51:54;;;;;;;5.10;3.00;;;33.20;39.70;;;;;;6240601;23;20007;-69
2022/08/23 06:54:22;;;;;;;5.57;3.60;;;33.10;39.40;;;;;;6239420;23;20004;-69
2022/08/23 06:56:48;;;;;;;6.80;2.92;;;32.80;38.60;;;;;;6239775;23;20004;-69
2022/08/23 06:59:15;;;;;;;6.78;3.13;;;33.00;39.00;;;;;;6238665;23;20000;-70
2022/08/23 07:01:45;;;;;;;5.13;3.00;;;33.20;38.50;;;;;;6240354;23;20004;-70
2022/08/23 07:04:13;;;;;;;4.13;2.88;;;33.40;38.50;;;;;;6237465;23;20091;-70
2022/08/23 07:06:39;;;;;;;3.75;2.53;;;33.80;38.20;;;;;;6237746;22;20004;-70
2022/08/23 07:09:05;;;;;;;5.68;2.95;;;34.40;38.00;;;;;;6238957;22;20027;-69
2022/08/23 07:11:31;;;;;;;6.18;3.38;;;34.50;37.40;;;;;;6239427;23;19996;-70
2022/08/23 07:13:59;;;;;;;5.10;3.30;;;34.70;37.10;;;;;;6238976;23;20007;-69
2022/08/23 07:16:30;;;;;;;6.03;3.17;;;34.70;37.10;;;;;;6239432;23;20080;-68
2022/08/23 07:18:56;;;;;;;6.07;3.58;;;34.80;36.80;;;;;;6240061;22;20012;-68
2022/08/23 07:21:21;;;;;;;4.70;2.70;;;34.70;36.60;;;;;;6239998;23;20341;-68
2022/08/23 07:23:47;;;;;;;7.03;3.75;;;34.70;36.70;;;;;;6240588;23;20004;-68
2022/08/23 07:26:15;;;;;;;6.10;3.08;;;34.30;36.70;;;;;;6238717;23;20012;-67
2022/08/23 07:28:42;;;;;;;5.68;3.40;;;34.50;36.60;;;;;;6240049;23;20000;-68
2022/08/23 07:31:12;;;;;;;7.30;3.53;;;34.30;36.50;;;;;;6235998;23;20004;-68
2022/08/23 07:33:39;;;;;;;6.23;3.20;;;34.40;36.70;;;;;;6235426;23;20000;-68
2022/08/23 07:36:06;;;;;;;3.92;2.92;;;34.60;36.60;;;;;;6238875;23;20235;-68
2022/08/23 07:38:32;;;;;;;4.07;3.03;;;34.90;36.40;;;;;;6237460;23;20004;-67
2022/08/23 07:40:58;;;;;;;5.90;3.22;;;35.00;36.20;;;;;;6238312;23;20015;-67
2022/08/23 07:43:23;;;;;;;5.30;3.40;;;34.80;35.70;;;;;;6237608;23;20338;-68
2022/08/23 07:45:49;;;;;;;5.45;3.30;;;34.60;36.00;;;;;;6237596;23;20008;-68
2022/08/23 07:48:14;;;;;;;7.63;3.90;;;34.50;36.40;;;;;;6236016;23;19996;-68
2022/08/23 07:50:40;;;;;;;5.50;4.13;;;34.30;36.40;;;;;;6238928;23;20083;-68
2022/08/23 07:53:09;;;;;;;6.25;3.53;;;34.20;36.40;;;;;;6239604;23;20396;-68
2022/08/23 07:55:38;;;;;;;8.02;2.80;;;34.40;36.50;;;;;;6238792;23;20008;-68
2022/08/23 07:58:04;;;;;;;5.72;2.80;;;34.80;36.20;;;;;;6239734;23;20009;-68
2022/08/23 08:00:29;;;;;;;7.43;3.53;;;35.30;35.80;;;;;;6236983;23;20107;-68
2022/08/23 08:02:55;;;;;;;4.93;3.10;;;35.50;35.20;;;;;;6238111;23;20408;-68
2022/08/23 08:05:21;;;;;;;6.47;3.72;;;35.70;35.10;;;;;;6237465;23;20053;-68
2022/08/23 08:07:46;;;;;;;5.03;2.95;;;35.50;34.80;;;;;;6238585;23;20341;-68
2022/08/23 08:10:12;;;;;;;6.43;3.20;;;35.60;35.10;;;;;;6238123;23;20066;-68
2022/08/23 08:12:37;;;;;;;5.82;3.40;;;35.70;34.90;;;;;;6237871;23;20066;-69
2022/08/23 08:15:03;;;;;;;4.95;3.00;;;35.90;34.70;;;;;;6236036;23;20606;-69
2022/08/23 08:17:29;;;;;;;6.70;3.50;;;36.00;34.60;;;;;;6237302;23;20437;-68
2022/08/23 08:19:55;;;;;;;6.10;3.30;;;35.70;34.90;;;;;;6239444;23;20328;-68
2022/08/23 08:22:20;;;;;;;5.90;2.90;;;35.80;35.10;;;;;;6239076;23;20009;-68
2022/08/23 08:24:46;;;;;;;5.00;2.50;;;36.00;35.10;;;;;;6237017;23;20079;-69
2022/08/23 08:27:11;;;;;;;5.32;2.95;;;35.90;35.30;;;;;;6238395;23;20008;-69
2022/08/23 08:29:37;;;;;;;6.00;3.28;;;35.50;35.60;;;;;;6237816;23;19996;-69
2022/08/23 08:32:03;;;;;;;4.53;3.10;;;35.10;35.90;;;;;;6237586;23;20000;-69
2022/08/23 08:34:28;;;;;;;5.45;2.53;;;34.80;36.30;;;;;;6237857;23;20817;-70
2022/08/23 08:36:57;;;;;;;4.60;2.50;;;34.80;36.80;;;;;;6237632;23;20035;-69
2022/08/23 08:39:26;;;;;;;5.68;2.47;;;34.50;37.10;;;;;;6240554;23;20081;-68
2022/08/23 08:42:11;;;;;;;5.43;2.58;;;34.20;37.50;;;;;;6240001;23;20012;-69
2022/08/23 08:44:55;;;;;;;5.63;2.58;;;33.60;38.20;;;;;;6253064;23;20004;-69
2022/08/23 08:47:36;;;;;;;4.97;2.60;;;33.10;38.70;;;;;;6261733;23;20003;-69
2022/08/23 08:50:04;;;;;;;4.40;2.60;;;32.40;39.30;;;;;;6239250;23;20000;-69
2022/08/23 08:52:56;;;;;;;6.60;2.80;;;31.90;40.00;;;;;;6238797;23;20000;-69
2022/08/23 08:55:37;;;;;;;7.90;3.08;;;31.50;40.50;;;;;;6235740;23;20087;-69
2022/08/23 08:58:05;;;;;;;4.55;2.67;;;31.10;40.90;;;;;;6238092;23;20019;-69
2022/08/23 09:00:35;;;;;;;5.43;2.58;;;30.80;41.40;;;;;;6237769;23;20007;-68
2022/08/23 09:03:07;;;;;;;6.57;2.90;;;30.60;41.70;;;;;;6237667;23;20039;-69
2022/08/23 09:05:38;;;;;;;6.20;2.85;;;30.40;41.80;;;;;;6237515;23;20012;-69
2022/08/23 09:08:34;;;;;;;4.97;2.88;;;30.30;41.80;;;;;;6240190;23;20437;-69
2022/08/23 09:11:15;;;;;;;5.15;2.90;;;30.20;41.80;;;;;;6239061;23;20000;-68
2022/08/23 09:14:02;;;;;;;6.90;3.13;;;30.10;42.10;;;;;;6239198;23;20000;-69
2022/08/23 09:16:50;;;;;;;6.18;3.53;;;30.20;42.30;;;;;;6239969;23;20000;-69
2022/08/23 09:19:16;;;;;;;4.30;2.20;;;30.10;42.00;;;;;;6238306;23;20668;-69
2022/08/23 09:21:48;;;;;;;7.32;3.30;;;30.10;42.10;;;;;;6238812;23;20429;-69
2022/08/23 09:24:15;;;;;;;5.22;2.35;;;30.00;42.10;;;;;;6240924;23;20000;-69
2022/08/23 09:26:41;;;;;;;4.45;2.35;;;30.00;42.00;;;;;;6239997;23;20040;-69
2022/08/23 09:29:29;;;;;;;3.55;2.15;;;30.00;41.70;;;;;;6241526;23;20377;-69
2022/08/23 09:32:01;;;;;;;4.85;2.00;;;30.20;41.60;;;;;;6248497;23;20000;-70
2022/08/23 09:34:35;;;;;;;3.63;1.80;;;30.20;41.00;;;;;;6264859;23;20495;-69
2022/08/23 09:37:10;;;;;;;5.35;2.75;;;30.40;40.80;;;;;;6258432;23;20015;-69
2022/08/23 09:39:38;;;;;;;5.45;2.60;;;30.50;39.80;;;;;;6240063;23;20008;-70
2022/08/23 09:42:24;;;;;;;3.50;2.08;;;30.40;39.30;;;;;;6241279;23;20073;-69
2022/08/23 09:44:50;;;;;;;4.00;1.92;;;30.40;39.70;;;;;;6238692;23;20031;-69
2022/08/23 09:47:16;;;;;;;3.78;2.08;;;30.40;39.40;;;;;;6241347;23;20628;-69
2022/08/23 09:49:47;;;;;;;5.25;2.38;;;30.50;40.30;;;;;;6240943;23;20008;-69
2022/08/23 09:52:26;;;;;;;4.38;2.08;;;30.40;38.90;;;;;;6240397;23;20011;-70
2022/08/23 09:55:01;;;;;;;6.22;2.40;;;30.50;39.00;;;;;;6236738;23;20011;-69
2022/08/23 09:57:29;;;;;;;3.78;1.98;;;30.40;38.40;;;;;;6237946;23;20007;-69
2022/08/23 10:00:00;;;;;;;3.03;1.60;;;30.50;38.80;;;;;;6239377;23;20000;-68
2022/08/23 10:02:31;;;;;;;2.10;1.30;;;30.70;38.80;;;;;;6238176;23;20615;-69
2022/08/23 10:05:16;;;;;;;4.55;2.10;;;30.80;38.90;;;;;;6240550;23;20012;-69
2022/08/23 10:07:51;;;;;;;5.13;2.50;;;30.90;37.80;;;;;;6239318;23;20079;-69
2022/08/23 10:10:23;;;;;;;4.57;2.05;;;30.80;37.50;;;;;;6240163;23;20004;-69
2022/08/23 10:12:51;;;;;;;3.70;2.00;;;30.80;37.50;;;;;;6239087;23;20451;-68
2022/08/23 10:15:16;;;;;;;4.60;1.80;;;30.70;37.70;;;;;;6239278;23;20011;-69
2022/08/23 10:18:09;;;;;;;6.88;2.60;;;30.80;37.90;;;;;;6240401;23;20519;-69
2022/08/23 10:20:51;;;;;;;4.03;2.03;;;31.00;38.00;;;;;;6229658;23;20322;-69
2022/08/23 10:23:37;;;;;;;3.25;1.70;;;31.10;38.00;;;;;;6240053;23;20610;-69
2022/08/23 10:26:06;;;;;;;3.70;1.92;;;31.20;38.00;;;;;;6238601;23;20031;-69
2022/08/23 10:31:54;;;;;;;3.60;1.95;;;31.10;37.30;;;;;;6237880;23;20403;-69
2022/08/23 10:34:37;;;;;;;6.05;2.72;;;31.10;36.70;;;;;;6239392;23;20028;-68
2022/08/23 10:37:30;;;;;;;4.43;2.17;;;31.00;36.40;;;;;;6239521;23;20444;-68
2022/08/23 10:40:38;;;;;;;4.05;1.95;;;31.00;36.90;;;;;;6239859;23;20069;-68
2022/08/23 10:43:34;;;;;;;3.65;1.83;;;31.10;37.00;;;;;;6197403;23;20074;-68
2022/08/23 10:46:01;;;;;;;5.78;2.67;;;31.30;37.20;;;;;;6240997;23;20464;-67
2022/08/23 10:48:30;;;;;;;4.93;2.35;;;31.20;36.50;;;;;;6239083;23;20004;-67
2022/08/23 10:51:01;;;;;;;4.93;2.30;;;31.10;36.80;;;;;;6241357;22;20050;-68
2022/08/23 10:53:45;;;;;;;4.72;2.20;;;31.20;36.90;;;;;;6242590;23;20031;-70
2022/08/23 10:56:15;;;;;;;4.22;1.98;;;31.10;36.50;;;;;;6240586;23;20004;-69
2022/08/23 10:58:48;;;;;;;3.75;2.17;;;31.00;36.10;;;;;;6239931;23;20008;-69
2022/08/23 11:01:18;;;;;;;5.07;2.40;;;31.10;36.50;;;;;;6237576;23;20004;-69
2022/08/23 11:04:05;;;;;;;5.25;2.70;;;31.10;36.20;;;;;;6239358;23;20004;-68
2022/08/23 11:06:36;;;;;;;5.32;2.70;;;31.00;36.30;;;;;;6240172;23;20011;-68
2022/08/23 11:09:26;;;;;;;5.18;2.83;;;30.90;36.70;;;;;;6240445;23;20004;-69
2022/08/23 11:12:10;;;;;;;6.28;2.75;;;30.90;36.90;;;;;;6238023;23;19999;-69
2022/08/23 11:14:45;;;;;;;6.68;2.50;;;30.90;37.30;;;;;;6238979;23;20024;-69
2022/08/23 11:17:25;;;;;;;7.18;2.25;;;31.00;37.20;;;;;;6239942;23;20038;-69
2022/08/23 11:19:58;;;;;;;4.03;1.88;;;31.10;37.00;;;;;;6238361;23;20600;-68
2022/08/23 11:22:47;;;;;;;3.33;2.10;;;31.30;37.20;;;;;;6241129;23;20008;-69
2022/08/23 11:25:15;;;;;;;3.97;2.00;;;31.40;37.30;;;;;;6239873;23;20290;-68
2022/08/23 11:27:42;;;;;;;3.42;1.80;;;31.50;37.00;;;;;;6240057;23;20584;-68
2022/08/23 11:30:35;;;;;;;6.68;2.08;;;31.60;36.40;;;;;;6238709;23;20087;-69
2022/08/23 11:33:23;;;;;;;5.53;1.90;;;31.60;35.70;;;;;;6238370;23;20038;-69
2022/08/23 11:36:07;;;;;;;3.22;1.50;;;31.60;35.50;;;;;;6240198;23;20004;-69
2022/08/23 11:38:48;;;;;;;3.40;1.90;;;31.50;35.90;;;;;;6238167;23;20030;-69
2022/08/23 11:41:23;;;;;;;3.50;1.58;;;31.60;35.80;;;;;;6240826;23;20000;-69
2022/08/23 11:44:12;;;;;;;2.33;1.52;;;31.70;35.80;;;;;;6239479;23;20456;-69
2022/08/23 11:46:49;;;;;;;4.60;2.08;;;31.60;35.60;;;;;;6240606;22;20834;-70
2022/08/23 11:49:27;;;;;;;3.58;1.95;;;31.70;36.20;;;;;;6241187;23;20072;-68
2022/08/23 11:52:28;;;;;;;2.67;1.55;;;31.70;36.30;;;;;;6239608;23;20015;-69
2022/08/23 11:55:15;;;;;;;6.20;2.40;;;31.80;36.40;;;;;;6238076;23;20004;-70
2022/08/23 11:58:03;;;;;;;4.18;1.95;;;31.70;36.00;;;;;;6238765;23;20008;-70
2022/08/23 12:00:47;;;;;;;4.78;2.03;;;31.60;36.10;;;;;;6239180;23;20402;-69
2022/08/23 12:03:25;;;;;;;3.33;1.90;;;31.60;36.20;;;;;;6236932;23;20092;-69
2022/08/23 12:05:51;;;;;;;3.28;2.10;;;31.80;36.30;;;;;;6236680;23;20007;-69
2022/08/23 12:08:21;;;;;;;7.32;2.40;;;31.90;36.00;;;;;;6237964;23;20005;-69
2022/08/23 12:10:47;;;;;;;2.63;1.77;;;31.90;35.80;;;;;;6239094;23;20378;-68
2022/08/23 12:13:18;;;;;;;5.90;3.00;;;32.10;35.80;;;;;;6238339;23;20289;-69
2022/08/23 12:16:02;;;;;;;;;;;32.20;35.20;;;;;;6240541;23;20050;-69
2022/08/23 12:18:32;;;;;;;4.13;2.05;;;32.10;35.50;;;;;;6238984;23;19910;-69
2022/08/23 12:21:00;;;;;;;3.20;2.15;;;32.10;36.00;;;;;;6240066;23;20030;-69
2022/08/23 12:23:26;;;;;;;3.65;1.85;;;32.30;35.90;;;;;;6238466;23;20031;-69
2022/08/23 12:26:03;;;;;;;2.63;1.60;;;32.30;35.80;;;;;;6239549;23;20004;-69
2022/08/23 12:28:38;;;;;;;3.00;1.65;;;32.50;36.10;;;;;;6184816;23;20735;-69
2022/08/23 12:31:17;;;;;;;6.35;2.22;;;32.50;36.20;;;;;;6211599;23;20052;-69
2022/08/23 12:34:04;;;;;;;5.93;3.03;;;32.30;36.40;;;;;;6208954;23;20008;-69
2022/08/23 12:37:09;;;;;;;3.88;2.10;;;32.10;36.50;;;;;;6211217;23;20396;-69
2022/08/23 12:39:45;;;;;;;5.10;2.28;;;32.10;36.80;;;;;;6209646;23;20365;-68
2022/08/23 12:42:24;;;;;;;5.65;2.88;;;32.10;37.30;;;;;;6182699;23;20337;-69
2022/08/23 12:45:00;;;;;;;3.50;2.20;;;32.10;36.50;;;;;;6211271;23;20004;-69
2022/08/23 12:47:25;;;;;;;3.05;1.73;;;32.00;36.70;;;;;;6210910;23;19997;-69
2022/08/23 12:49:59;;;;;;;4.97;2.08;;;31.90;36.70;;;;;;6183329;23;20080;-69
2022/08/23 12:52:28;;;;;;;2.50;1.65;;;31.80;36.80;;;;;;6209427;23;20007;-69
2022/08/23 12:54:56;;;;;;;2.42;1.60;;;32.00;37.10;;;;;;6209632;23;20008;-69
2022/08/23 12:57:31;;;;;;;3.42;1.83;;;32.00;37.10;;;;;;6210617;23;20005;-69
2022/08/23 13:00:12;;;;;;;5.22;1.75;;;32.00;37.10;;;;;;6211561;23;20001;-68
2022/08/23 13:02:39;;;;;;;5.35;2.20;;;32.00;37.00;;;;;;6209633;23;20005;-69
2022/08/23 13:05:13;;;;;;;3.33;1.90;;;32.00;37.00;;;;;;6210502;23;20001;-68
2022/08/23 13:07:40;;;;;;;2.80;1.80;;;31.90;37.00;;;;;;6212654;23;20004;-69
2022/08/23 13:10:07;;;;;;;3.13;1.80;;;31.90;36.70;;;;;;6211520;23;20426;-68
2022/08/23 13:12:34;;;;;;;4.72;1.60;;;31.90;36.90;;;;;;6209770;23;20005;-68
2022/08/23 13:15:01;;;;;;;5.55;2.03;;;32.10;36.60;;;;;;6184277;23;20004;-69
2022/08/23 13:17:27;;;;;;;3.72;1.70;;;32.20;36.50;;;;;;6210528;23;20011;-68
2022/08/23 13:20:09;;;;;;;4.90;2.10;;;32.50;36.40;;;;;;6211279;23;20009;-68